sensor_id;sensor_type;location;lat;lon;timestamp;temperature;humidity
2190;DHT22;1101;51.056;7.262;2022-07-23T00:00:56;17.70;85.20
2190;DHT22;1101;51.056;7.262;2022-07-23T00:03:24;17.70;85.30
2190;DHT22;1101;51.056;7.262;2022-07-23T00:05:52;17.60;85.30
2190;DHT22;1101;51.056;7.262;2022-07-23T00:08:20;17.60;85.40
2190;DHT22;1101;51.056;7.262;2022-07-23T00:10:48;17.60;85.40
2190;DHT22;1101;51.056;7.262;2022-07-23T00:13:17;17.60;85.50
2190;DHT22;1101;51.056;7.262;2022-07-23T00:15:45;17.60;85.50
2190;DHT22;1101;51.056;7.262;2022-07-23T00:18:13;17.60;85.60
2190;DHT22;1101;51.056;7.262;2022-07-23T00:20:41;17.60;85.60
2190;DHT22;1101;51.056;7.262;2022-07-23T00:23:08;17.50;85.60
2190;DHT22;1101;51.056;7.262;2022-07-23T00:25:37;17.50;85.60
2190;DHT22;1101;51.056;7.262;2022-07-23T00:28:05;17.50;85.60
2190;DHT22;1101;51.056;7.262;2022-07-23T00:30:34;17.50;85.70
2190;DHT22;1101;51.056;7.262;2022-07-23T00:33:04;17.50;85.80
2190;DHT22;1101;51.056;7.262;2022-07-23T00:35:33;17.40;85.60
2190;DHT22;1101;51.056;7.262;2022-07-23T00:38:02;17.40;85.70
2190;DHT22;1101;51.056;7.262;2022-07-23T00:40:31;17.40;85.90
2190;DHT22;1101;51.056;7.262;2022-07-23T00:43:00;17.40;85.90
2190;DHT22;1101;51.056;7.262;2022-07-23T00:45:57;17.40;85.90
2190;DHT22;1101;51.056;7.262;2022-07-23T00:48:24;17.30;85.90
2190;DHT22;1101;51.056;7.262;2022-07-23T00:50:53;17.30;86.00
2190;DHT22;1101;51.056;7.262;2022-07-23T00:53:20;17.20;85.90
2190;DHT22;1101;51.056;7.262;2022-07-23T00:55:48;17.20;86.30
2190;DHT22;1101;51.056;7.262;2022-07-23T00:58:16;17.10;86.30
2190;DHT22;1101;51.056;7.262;2022-07-23T01:00:45;17.00;86.40
2190;DHT22;1101;51.056;7.262;2022-07-23T01:03:14;16.90;86.50
2190;DHT22;1101;51.056;7.262;2022-07-23T01:05:42;16.90;86.60
2190;DHT22;1101;51.056;7.262;2022-07-23T01:08:11;16.80;86.70
2190;DHT22;1101;51.056;7.262;2022-07-23T01:10:42;16.80;86.80
2190;DHT22;1101;51.056;7.262;2022-07-23T01:13:10;16.80;87.00
2190;DHT22;1101;51.056;7.262;2022-07-23T01:15:38;16.70;86.90
2190;DHT22;1101;51.056;7.262;2022-07-23T01:18:07;16.70;87.00
2190;DHT22;1101;51.056;7.262;2022-07-23T01:20:37;16.70;87.10
2190;DHT22;1101;51.056;7.262;2022-07-23T01:23:06;16.70;87.20
2190;DHT22;1101;51.056;7.262;2022-07-23T01:25:34;16.70;87.20
2190;DHT22;1101;51.056;7.262;2022-07-23T01:28:02;16.70;87.40
2190;DHT22;1101;51.056;7.262;2022-07-23T01:30:30;16.60;87.30
2190;DHT22;1101;51.056;7.262;2022-07-23T01:32:57;16.60;87.50
2190;DHT22;1101;51.056;7.262;2022-07-23T01:35:25;16.50;87.70
2190;DHT22;1101;51.056;7.262;2022-07-23T01:37:53;16.50;87.70
2190;DHT22;1101;51.056;7.262;2022-07-23T01:40:22;16.50;87.60
2190;DHT22;1101;51.056;7.262;2022-07-23T01:42:50;16.50;87.80
2190;DHT22;1101;51.056;7.262;2022-07-23T01:45:18;16.50;87.90
2190;DHT22;1101;51.056;7.262;2022-07-23T01:47:46;16.50;88.00
2190;DHT22;1101;51.056;7.262;2022-07-23T01:50:14;16.50;88.00
2190;DHT22;1101;51.056;7.262;2022-07-23T01:52:42;16.50;88.00
2190;DHT22;1101;51.056;7.262;2022-07-23T01:55:10;16.50;88.20
2190;DHT22;1101;51.056;7.262;2022-07-23T01:57:45;16.50;88.20
2190;DHT22;1101;51.056;7.262;2022-07-23T02:00:14;16.50;88.20
2190;DHT22;1101;51.056;7.262;2022-07-23T02:02:41;16.50;88.30
2190;DHT22;1101;51.056;7.262;2022-07-23T02:05:09;16.50;88.30
2190;DHT22;1101;51.056;7.262;2022-07-23T02:07:37;16.50;88.40
2190;DHT22;1101;51.056;7.262;2022-07-23T02:10:06;16.40;88.30
2190;DHT22;1101;51.056;7.262;2022-07-23T02:12:34;16.40;88.30
2190;DHT22;1101;51.056;7.262;2022-07-23T02:15:04;16.40;88.40
2190;DHT22;1101;51.056;7.262;2022-07-23T02:17:36;16.40;88.50
2190;DHT22;1101;51.056;7.262;2022-07-23T02:20:05;16.40;88.50
2190;DHT22;1101;51.056;7.262;2022-07-23T02:22:34;16.30;88.40
2190;DHT22;1101;51.056;7.262;2022-07-23T02:25:02;16.30;88.40
2190;DHT22;1101;51.056;7.262;2022-07-23T02:27:32;16.20;88.50
2190;DHT22;1101;51.056;7.262;2022-07-23T02:30:00;16.20;88.70
2190;DHT22;1101;51.056;7.262;2022-07-23T02:32:30;16.10;88.60
2190;DHT22;1101;51.056;7.262;2022-07-23T02:34:58;16.10;88.70
2190;DHT22;1101;51.056;7.262;2022-07-23T02:37:26;16.00;88.80
2190;DHT22;1101;51.056;7.262;2022-07-23T02:39:58;16.00;89.00
2190;DHT22;1101;51.056;7.262;2022-07-23T02:42:54;16.00;89.10
2190;DHT22;1101;51.056;7.262;2022-07-23T02:45:22;16.00;89.20
2190;DHT22;1101;51.056;7.262;2022-07-23T02:47:51;15.90;89.30
2190;DHT22;1101;51.056;7.262;2022-07-23T02:50:19;15.90;89.30
2190;DHT22;1101;51.056;7.262;2022-07-23T02:52:47;15.90;89.30
2190;DHT22;1101;51.056;7.262;2022-07-23T02:55:14;15.90;89.40
2190;DHT22;1101;51.056;7.262;2022-07-23T02:57:42;16.00;89.60
2190;DHT22;1101;51.056;7.262;2022-07-23T03:00:11;16.00;89.40
2190;DHT22;1101;51.056;7.262;2022-07-23T03:02:39;16.00;89.60
2190;DHT22;1101;51.056;7.262;2022-07-23T03:05:09;15.90;89.50
2190;DHT22;1101;51.056;7.262;2022-07-23T03:07:37;15.90;89.50
2190;DHT22;1101;51.056;7.262;2022-07-23T03:10:05;15.90;89.60
2190;DHT22;1101;51.056;7.262;2022-07-23T03:12:33;15.90;89.70
2190;DHT22;1101;51.056;7.262;2022-07-23T03:15:01;15.90;89.80
2190;DHT22;1101;51.056;7.262;2022-07-23T03:17:29;15.90;89.70
2190;DHT22;1101;51.056;7.262;2022-07-23T03:19:57;15.80;89.60
2190;DHT22;1101;51.056;7.262;2022-07-23T03:22:26;15.80;89.70
2190;DHT22;1101;51.056;7.262;2022-07-23T03:24:54;15.80;89.70
2190;DHT22;1101;51.056;7.262;2022-07-23T03:27:22;15.80;89.80
2190;DHT22;1101;51.056;7.262;2022-07-23T03:29:51;15.80;89.80
2190;DHT22;1101;51.056;7.262;2022-07-23T03:32:19;15.80;89.80
2190;DHT22;1101;51.056;7.262;2022-07-23T03:34:47;15.80;89.80
2190;DHT22;1101;51.056;7.262;2022-07-23T03:37:15;15.80;90.00
2190;DHT22;1101;51.056;7.262;2022-07-23T03:39:44;15.70;89.70
2190;DHT22;1101;51.056;7.262;2022-07-23T03:42:12;15.70;89.80
2190;DHT22;1101;51.056;7.262;2022-07-23T03:44:40;15.70;89.90
2190;DHT22;1101;51.056;7.262;2022-07-23T03:47:07;15.70;89.90
2190;DHT22;1101;51.056;7.262;2022-07-23T03:49:35;15.60;89.80
2190;DHT22;1101;51.056;7.262;2022-07-23T03:52:03;15.60;89.90
2190;DHT22;1101;51.056;7.262;2022-07-23T03:54:31;15.60;90.00
2190;DHT22;1101;51.056;7.262;2022-07-23T03:57:00;15.60;90.00
2190;DHT22;1101;51.056;7.262;2022-07-23T03:59:30;15.60;90.00
2190;DHT22;1101;51.056;7.262;2022-07-23T04:01:58;15.60;90.00
2190;DHT22;1101;51.056;7.262;2022-07-23T04:04:26;15.60;90.00
2190;DHT22;1101;51.056;7.262;2022-07-23T04:06:53;15.60;90.00
2190;DHT22;1101;51.056;7.262;2022-07-23T04:09:21;15.50;90.00
2190;DHT22;1101;51.056;7.262;2022-07-23T04:11:49;15.50;90.00
2190;DHT22;1101;51.056;7.262;2022-07-23T04:14:18;15.50;90.00
2190;DHT22;1101;51.056;7.262;2022-07-23T04:16:46;15.50;90.00
2190;DHT22;1101;51.056;7.262;2022-07-23T04:19:14;15.50;90.00
2190;DHT22;1101;51.056;7.262;2022-07-23T04:21:42;15.50;90.10
2190;DHT22;1101;51.056;7.262;2022-07-23T04:24:10;15.60;90.20
2190;DHT22;1101;51.056;7.262;2022-07-23T04:26:38;15.60;90.20
2190;DHT22;1101;51.056;7.262;2022-07-23T04:29:06;15.60;90.30
2190;DHT22;1101;51.056;7.262;2022-07-23T04:31:35;15.70;90.30
2190;DHT22;1101;51.056;7.262;2022-07-23T04:34:03;15.70;90.20
2190;DHT22;1101;51.056;7.262;2022-07-23T04:36:31;15.70;90.20
2190;DHT22;1101;51.056;7.262;2022-07-23T04:38:59;15.80;90.20
2190;DHT22;1101;51.056;7.262;2022-07-23T04:41:30;15.80;90.20
2190;DHT22;1101;51.056;7.262;2022-07-23T04:43:57;15.80;90.20
2190;DHT22;1101;51.056;7.262;2022-07-23T04:46:25;15.80;90.20
2190;DHT22;1101;51.056;7.262;2022-07-23T04:48:54;15.80;90.20
2190;DHT22;1101;51.056;7.262;2022-07-23T04:51:23;15.90;90.20
2190;DHT22;1101;51.056;7.262;2022-07-23T04:53:56;15.90;90.20
2190;DHT22;1101;51.056;7.262;2022-07-23T04:56:24;15.90;90.20
2190;DHT22;1101;51.056;7.262;2022-07-23T04:58:56;15.90;90.20
2190;DHT22;1101;51.056;7.262;2022-07-23T05:01:24;16.00;90.30
2190;DHT22;1101;51.056;7.262;2022-07-23T05:03:52;16.00;90.30
2190;DHT22;1101;51.056;7.262;2022-07-23T05:06:21;16.00;90.30
2190;DHT22;1101;51.056;7.262;2022-07-23T05:08:49;16.10;90.30
2190;DHT22;1101;51.056;7.262;2022-07-23T05:11:17;16.10;90.30
2190;DHT22;1101;51.056;7.262;2022-07-23T05:13:52;16.10;90.30
2190;DHT22;1101;51.056;7.262;2022-07-23T05:16:20;16.10;90.30
2190;DHT22;1101;51.056;7.262;2022-07-23T05:18:47;16.20;90.30
2190;DHT22;1101;51.056;7.262;2022-07-23T05:21:15;16.20;90.30
2190;DHT22;1101;51.056;7.262;2022-07-23T05:23:44;16.20;90.30
2190;DHT22;1101;51.056;7.262;2022-07-23T05:26:12;16.20;90.30
2190;DHT22;1101;51.056;7.262;2022-07-23T05:28:40;16.20;90.30
2190;DHT22;1101;51.056;7.262;2022-07-23T05:31:15;16.30;90.40
2190;DHT22;1101;51.056;7.262;2022-07-23T05:33:43;16.30;90.40
2190;DHT22;1101;51.056;7.262;2022-07-23T05:36:11;16.30;90.40
2190;DHT22;1101;51.056;7.262;2022-07-23T05:38:42;16.30;90.40
2190;DHT22;1101;51.056;7.262;2022-07-23T05:41:11;16.40;90.40
2190;DHT22;1101;51.056;7.262;2022-07-23T05:43:39;16.40;90.30
2190;DHT22;1101;51.056;7.262;2022-07-23T05:46:07;16.40;90.30
2190;DHT22;1101;51.056;7.262;2022-07-23T05:48:36;16.50;90.30
2190;DHT22;1101;51.056;7.262;2022-07-23T05:51:04;16.50;90.30
2190;DHT22;1101;51.056;7.262;2022-07-23T05:53:33;16.50;90.30
2190;DHT22;1101;51.056;7.262;2022-07-23T05:56:01;16.60;90.30
2190;DHT22;1101;51.056;7.262;2022-07-23T05:58:58;16.60;90.20
2190;DHT22;1101;51.056;7.262;2022-07-23T06:01:30;16.70;90.20
2190;DHT22;1101;51.056;7.262;2022-07-23T06:03:57;16.70;90.30
2190;DHT22;1101;51.056;7.262;2022-07-23T06:06:25;16.70;90.20
2190;DHT22;1101;51.056;7.262;2022-07-23T06:08:53;16.80;90.30
2190;DHT22;1101;51.056;7.262;2022-07-23T06:11:24;16.80;90.20
2190;DHT22;1101;51.056;7.262;2022-07-23T06:13:52;16.80;90.10
2190;DHT22;1101;51.056;7.262;2022-07-23T06:16:21;16.90;90.10
2190;DHT22;1101;51.056;7.262;2022-07-23T06:18:49;16.90;90.10
2190;DHT22;1101;51.056;7.262;2022-07-23T06:21:17;17.00;90.10
2190;DHT22;1101;51.056;7.262;2022-07-23T06:24:05;17.00;90.20
2190;DHT22;1101;51.056;7.262;2022-07-23T06:26:33;17.10;90.10
2190;DHT22;1101;51.056;7.262;2022-07-23T06:29:01;17.10;90.00
2190;DHT22;1101;51.056;7.262;2022-07-23T06:31:58;17.20;90.10
2190;DHT22;1101;51.056;7.262;2022-07-23T06:34:26;17.30;90.20
2190;DHT22;1101;51.056;7.262;2022-07-23T06:36:53;17.40;90.20
2190;DHT22;1101;51.056;7.262;2022-07-23T06:39:21;17.40;90.10
2190;DHT22;1101;51.056;7.262;2022-07-23T06:41:52;17.50;90.10
2190;DHT22;1101;51.056;7.262;2022-07-23T06:44:26;17.60;90.00
2190;DHT22;1101;51.056;7.262;2022-07-23T06:46:54;17.70;90.10
2190;DHT22;1101;51.056;7.262;2022-07-23T06:49:23;17.70;89.90
2190;DHT22;1101;51.056;7.262;2022-07-23T06:51:51;17.80;89.90
2190;DHT22;1101;51.056;7.262;2022-07-23T06:54:19;17.80;89.90
2190;DHT22;1101;51.056;7.262;2022-07-23T06:56:47;17.90;90.00
2190;DHT22;1101;51.056;7.262;2022-07-23T06:59:15;18.00;90.00
2190;DHT22;1101;51.056;7.262;2022-07-23T07:01:43;18.00;90.00
2190;DHT22;1101;51.056;7.262;2022-07-23T07:04:11;18.10;89.80
2190;DHT22;1101;51.056;7.262;2022-07-23T07:06:40;18.10;89.50
2190;DHT22;1101;51.056;7.262;2022-07-23T07:09:08;18.20;89.60
2190;DHT22;1101;51.056;7.262;2022-07-23T07:11:36;18.20;90.00
2190;DHT22;1101;51.056;7.262;2022-07-23T07:14:03;18.30;89.40
2190;DHT22;1101;51.056;7.262;2022-07-23T07:16:31;18.30;89.30
2190;DHT22;1101;51.056;7.262;2022-07-23T07:18:59;18.40;89.10
2190;DHT22;1101;51.056;7.262;2022-07-23T07:21:29;18.40;89.00
2190;DHT22;1101;51.056;7.262;2022-07-23T07:23:59;18.50;89.10
2190;DHT22;1101;51.056;7.262;2022-07-23T07:26:33;18.50;88.90
2190;DHT22;1101;51.056;7.262;2022-07-23T07:29:01;18.60;89.00
2190;DHT22;1101;51.056;7.262;2022-07-23T07:31:31;18.60;89.10
2190;DHT22;1101;51.056;7.262;2022-07-23T07:33:59;18.70;89.00
2190;DHT22;1101;51.056;7.262;2022-07-23T07:36:29;18.80;88.90
2190;DHT22;1101;51.056;7.262;2022-07-23T07:38:58;18.90;88.80
2190;DHT22;1101;51.056;7.262;2022-07-23T07:41:26;19.00;88.80
2190;DHT22;1101;51.056;7.262;2022-07-23T07:43:54;19.00;88.60
2190;DHT22;1101;51.056;7.262;2022-07-23T07:46:22;19.00;88.60
2190;DHT22;1101;51.056;7.262;2022-07-23T07:48:50;19.00;88.30
2190;DHT22;1101;51.056;7.262;2022-07-23T07:51:23;19.10;88.30
2190;DHT22;1101;51.056;7.262;2022-07-23T07:53:51;19.20;88.20
2190;DHT22;1101;51.056;7.262;2022-07-23T07:56:21;19.30;88.10
2190;DHT22;1101;51.056;7.262;2022-07-23T07:58:49;19.40;88.00
2190;DHT22;1101;51.056;7.262;2022-07-23T08:01:19;19.40;87.90
2190;DHT22;1101;51.056;7.262;2022-07-23T08:03:47;19.50;87.80
2190;DHT22;1101;51.056;7.262;2022-07-23T08:06:15;19.50;87.80
2190;DHT22;1101;51.056;7.262;2022-07-23T08:08:42;19.60;87.80
2190;DHT22;1101;51.056;7.262;2022-07-23T08:11:10;19.80;87.80
2190;DHT22;1101;51.056;7.262;2022-07-23T08:13:39;19.90;87.60
2190;DHT22;1101;51.056;7.262;2022-07-23T08:16:07;19.80;87.40
2190;DHT22;1101;51.056;7.262;2022-07-23T08:18:35;19.80;87.30
2190;DHT22;1101;51.056;7.262;2022-07-23T08:21:03;19.70;87.40
2190;DHT22;1101;51.056;7.262;2022-07-23T08:23:32;19.70;87.60
2190;DHT22;1101;51.056;7.262;2022-07-23T08:25:59;19.70;87.80
2190;DHT22;1101;51.056;7.262;2022-07-23T08:28:29;19.70;87.60
2190;DHT22;1101;51.056;7.262;2022-07-23T08:31:00;19.60;87.70
2190;DHT22;1101;51.056;7.262;2022-07-23T08:33:32;19.70;87.80
2190;DHT22;1101;51.056;7.262;2022-07-23T08:36:03;19.70;87.50
2190;DHT22;1101;51.056;7.262;2022-07-23T08:38:32;19.90;87.60
2190;DHT22;1101;51.056;7.262;2022-07-23T08:41:00;20.00;87.50
2190;DHT22;1101;51.056;7.262;2022-07-23T08:43:32;20.20;87.50
2190;DHT22;1101;51.056;7.262;2022-07-23T08:46:03;20.40;87.30
2190;DHT22;1101;51.056;7.262;2022-07-23T08:48:33;20.50;87.00
2190;DHT22;1101;51.056;7.262;2022-07-23T08:51:03;20.60;86.80
2190;DHT22;1101;51.056;7.262;2022-07-23T08:53:34;20.50;86.60
2190;DHT22;1101;51.056;7.262;2022-07-23T08:56:04;20.60;86.70
2190;DHT22;1101;51.056;7.262;2022-07-23T08:58:34;20.70;86.50
2190;DHT22;1101;51.056;7.262;2022-07-23T09:01:04;20.80;86.40
2190;DHT22;1101;51.056;7.262;2022-07-23T09:03:33;21.00;86.20
2190;DHT22;1101;51.056;7.262;2022-07-23T09:06:02;21.00;85.80
2190;DHT22;1101;51.056;7.262;2022-07-23T09:08:35;21.10;85.70
2190;DHT22;1101;51.056;7.262;2022-07-23T09:11:05;21.20;85.70
2190;DHT22;1101;51.056;7.262;2022-07-23T09:13:39;21.30;85.70
2190;DHT22;1101;51.056;7.262;2022-07-23T09:16:11;21.40;85.60
2190;DHT22;1101;51.056;7.262;2022-07-23T09:18:45;21.40;85.40
2190;DHT22;1101;51.056;7.262;2022-07-23T09:21:19;21.50;85.30
2190;DHT22;1101;51.056;7.262;2022-07-23T09:23:53;21.60;85.10
2190;DHT22;1101;51.056;7.262;2022-07-23T09:26:34;21.70;84.90
2190;DHT22;1101;51.056;7.262;2022-07-23T09:29:05;21.70;84.70
2190;DHT22;1101;51.056;7.262;2022-07-23T09:31:43;21.70;84.60
2190;DHT22;1101;51.056;7.262;2022-07-23T09:34:15;21.80;84.70
2190;DHT22;1101;51.056;7.262;2022-07-23T09:36:43;21.80;84.60
2190;DHT22;1101;51.056;7.262;2022-07-23T09:39:12;21.90;84.60
2190;DHT22;1101;51.056;7.262;2022-07-23T09:41:41;22.00;84.60
2190;DHT22;1101;51.056;7.262;2022-07-23T09:44:12;22.00;84.10
2190;DHT22;1101;51.056;7.262;2022-07-23T09:46:42;22.00;84.10
2190;DHT22;1101;51.056;7.262;2022-07-23T09:49:16;22.10;83.90
2190;DHT22;1101;51.056;7.262;2022-07-23T09:51:49;22.10;83.90
2190;DHT22;1101;51.056;7.262;2022-07-23T09:54:29;22.20;84.00
2190;DHT22;1101;51.056;7.262;2022-07-23T09:56:59;22.30;83.60
2190;DHT22;1101;51.056;7.262;2022-07-23T09:59:33;22.30;83.50
2190;DHT22;1101;51.056;7.262;2022-07-23T10:02:03;22.40;83.60
2190;DHT22;1101;51.056;7.262;2022-07-23T10:04:32;22.40;83.40
2190;DHT22;1101;51.056;7.262;2022-07-23T10:07:04;22.50;83.30
2190;DHT22;1101;51.056;7.262;2022-07-23T10:09:35;22.60;83.10
2190;DHT22;1101;51.056;7.262;2022-07-23T10:12:05;22.60;82.70
2190;DHT22;1101;51.056;7.262;2022-07-23T10:14:50;22.70;82.80
2190;DHT22;1101;51.056;7.262;2022-07-23T10:17:19;22.70;82.60
2190;DHT22;1101;51.056;7.262;2022-07-23T10:19:47;22.70;82.20
2190;DHT22;1101;51.056;7.262;2022-07-23T10:22:19;22.60;82.20
2190;DHT22;1101;51.056;7.262;2022-07-23T10:25:04;22.70;82.50
2190;DHT22;1101;51.056;7.262;2022-07-23T10:27:59;22.80;82.50
2190;DHT22;1101;51.056;7.262;2022-07-23T10:30:39;23.00;82.40
2190;DHT22;1101;51.056;7.262;2022-07-23T10:33:27;23.10;82.90
2190;DHT22;1101;51.056;7.262;2022-07-23T10:36:02;23.20;82.10
2190;DHT22;1101;51.056;7.262;2022-07-23T10:38:37;23.20;81.70
2190;DHT22;1101;51.056;7.262;2022-07-23T10:41:08;23.20;81.70
2190;DHT22;1101;51.056;7.262;2022-07-23T10:43:39;23.30;81.80
2190;DHT22;1101;51.056;7.262;2022-07-23T10:46:24;23.40;81.80
2190;DHT22;1101;51.056;7.262;2022-07-23T10:49:21;23.50;81.60
2190;DHT22;1101;51.056;7.262;2022-07-23T10:58:05;23.70;81.10
2190;DHT22;1101;51.056;7.262;2022-07-23T11:00:34;23.70;80.10
2190;DHT22;1101;51.056;7.262;2022-07-23T11:03:03;23.60;80.50
2190;DHT22;1101;51.056;7.262;2022-07-23T11:05:42;23.70;80.70
2190;DHT22;1101;51.056;7.262;2022-07-23T11:08:16;23.80;80.90
2190;DHT22;1101;51.056;7.262;2022-07-23T11:10:46;24.00;80.50
2190;DHT22;1101;51.056;7.262;2022-07-23T11:16:24;24.10;79.90
2190;DHT22;1101;51.056;7.262;2022-07-23T11:19:07;24.20;79.80
2190;DHT22;1101;51.056;7.262;2022-07-23T11:21:47;24.30;79.60
2190;DHT22;1101;51.056;7.262;2022-07-23T11:24:23;24.30;79.60
2190;DHT22;1101;51.056;7.262;2022-07-23T11:27:00;24.40;79.70
2190;DHT22;1101;51.056;7.262;2022-07-23T11:29:47;24.50;79.00
2190;DHT22;1101;51.056;7.262;2022-07-23T11:32:33;24.60;79.10
2190;DHT22;1101;51.056;7.262;2022-07-23T11:35:22;24.60;79.00
2190;DHT22;1101;51.056;7.262;2022-07-23T11:37:54;24.60;79.70
2190;DHT22;1101;51.056;7.262;2022-07-23T11:40:30;24.70;78.80
2190;DHT22;1101;51.056;7.262;2022-07-23T11:43:00;24.80;78.60
2190;DHT22;1101;51.056;7.262;2022-07-23T11:45:32;24.80;78.00
2190;DHT22;1101;51.056;7.262;2022-07-23T11:48:01;24.90;78.20
2190;DHT22;1101;51.056;7.262;2022-07-23T11:50:29;25.00;77.90
2190;DHT22;1101;51.056;7.262;2022-07-23T11:52:59;25.10;77.60
2190;DHT22;1101;51.056;7.262;2022-07-23T11:55:29;25.10;77.60
2190;DHT22;1101;51.056;7.262;2022-07-23T11:57:57;25.20;77.50
2190;DHT22;1101;51.056;7.262;2022-07-23T12:00:28;25.30;77.00
2190;DHT22;1101;51.056;7.262;2022-07-23T12:02:58;25.30;76.40
2190;DHT22;1101;51.056;7.262;2022-07-23T12:05:31;25.40;75.90
2190;DHT22;1101;51.056;7.262;2022-07-23T12:08:02;25.30;76.20
2190;DHT22;1101;51.056;7.262;2022-07-23T12:10:34;25.40;75.90
2190;DHT22;1101;51.056;7.262;2022-07-23T12:13:05;25.40;76.00
2190;DHT22;1101;51.056;7.262;2022-07-23T12:15:35;25.50;76.00
2190;DHT22;1101;51.056;7.262;2022-07-23T12:18:06;25.60;76.10
2190;DHT22;1101;51.056;7.262;2022-07-23T12:20:36;25.60;75.30
2190;DHT22;1101;51.056;7.262;2022-07-23T12:23:07;25.60;75.70
2190;DHT22;1101;51.056;7.262;2022-07-23T12:25:37;25.60;75.80
2190;DHT22;1101;51.056;7.262;2022-07-23T12:28:06;25.80;76.00
2190;DHT22;1101;51.056;7.262;2022-07-23T12:30:37;26.00;75.70
2190;DHT22;1101;51.056;7.262;2022-07-23T12:33:07;26.00;75.20
2190;DHT22;1101;51.056;7.262;2022-07-23T12:35:37;26.10;75.10
2190;DHT22;1101;51.056;7.262;2022-07-23T12:38:09;26.20;75.20
2190;DHT22;1101;51.056;7.262;2022-07-23T12:40:44;26.20;75.00
2190;DHT22;1101;51.056;7.262;2022-07-23T12:43:20;26.30;74.60
2190;DHT22;1101;51.056;7.262;2022-07-23T12:45:50;26.40;74.60
2190;DHT22;1101;51.056;7.262;2022-07-23T12:48:20;26.40;74.60
2190;DHT22;1101;51.056;7.262;2022-07-23T12:50:56;26.40;74.40
2190;DHT22;1101;51.056;7.262;2022-07-23T12:53:28;26.40;74.30
2190;DHT22;1101;51.056;7.262;2022-07-23T12:55:58;26.50;74.00
2190;DHT22;1101;51.056;7.262;2022-07-23T12:58:47;26.40;73.90
2190;DHT22;1101;51.056;7.262;2022-07-23T13:01:23;26.40;73.90
2190;DHT22;1101;51.056;7.262;2022-07-23T13:03:57;26.50;74.10
2190;DHT22;1101;51.056;7.262;2022-07-23T13:06:26;26.50;73.80
2190;DHT22;1101;51.056;7.262;2022-07-23T13:08:56;26.60;73.20
2190;DHT22;1101;51.056;7.262;2022-07-23T13:11:24;26.60;73.50
2190;DHT22;1101;51.056;7.262;2022-07-23T13:13:52;26.70;73.70
2190;DHT22;1101;51.056;7.262;2022-07-23T13:16:21;26.80;73.00
2190;DHT22;1101;51.056;7.262;2022-07-23T13:18:49;26.60;72.60
2190;DHT22;1101;51.056;7.262;2022-07-23T13:21:25;26.60;72.90
2190;DHT22;1101;51.056;7.262;2022-07-23T13:23:53;26.60;72.80
2190;DHT22;1101;51.056;7.262;2022-07-23T13:26:22;26.70;72.60
2190;DHT22;1101;51.056;7.262;2022-07-23T13:28:50;26.80;72.50
2190;DHT22;1101;51.056;7.262;2022-07-23T13:31:20;26.80;72.20
2190;DHT22;1101;51.056;7.262;2022-07-23T13:33:47;26.80;72.40
2190;DHT22;1101;51.056;7.262;2022-07-23T13:36:16;26.90;72.50
2190;DHT22;1101;51.056;7.262;2022-07-23T13:38:44;26.90;72.30
2190;DHT22;1101;51.056;7.262;2022-07-23T13:41:12;27.00;72.50
2190;DHT22;1101;51.056;7.262;2022-07-23T13:43:41;27.10;72.30
2190;DHT22;1101;51.056;7.262;2022-07-23T13:46:09;27.20;71.80
2190;DHT22;1101;51.056;7.262;2022-07-23T13:48:36;27.20;72.10
2190;DHT22;1101;51.056;7.262;2022-07-23T13:51:04;27.30;72.00
2190;DHT22;1101;51.056;7.262;2022-07-23T13:53:32;27.30;71.70
2190;DHT22;1101;51.056;7.262;2022-07-23T13:56:00;27.30;71.10
2190;DHT22;1101;51.056;7.262;2022-07-23T13:58:28;27.20;71.10
2190;DHT22;1101;51.056;7.262;2022-07-23T14:00:58;27.20;71.40
2190;DHT22;1101;51.056;7.262;2022-07-23T14:03:26;27.30;71.40
2190;DHT22;1101;51.056;7.262;2022-07-23T14:05:54;27.30;71.30
2190;DHT22;1101;51.056;7.262;2022-07-23T14:08:23;27.40;71.60
2190;DHT22;1101;51.056;7.262;2022-07-23T14:10:51;27.50;71.20
2190;DHT22;1101;51.056;7.262;2022-07-23T14:13:19;27.60;71.30
2190;DHT22;1101;51.056;7.262;2022-07-23T14:15:47;27.60;71.10
2190;DHT22;1101;51.056;7.262;2022-07-23T14:18:17;27.70;70.50
2190;DHT22;1101;51.056;7.262;2022-07-23T14:20:47;27.70;69.70
2190;DHT22;1101;51.056;7.262;2022-07-23T14:23:15;27.60;70.30
2190;DHT22;1101;51.056;7.262;2022-07-23T14:25:43;27.50;70.50
2190;DHT22;1101;51.056;7.262;2022-07-23T14:28:13;27.40;69.40
2190;DHT22;1101;51.056;7.262;2022-07-23T14:30:41;27.40;69.70
2190;DHT22;1101;51.056;7.262;2022-07-23T14:33:10;27.30;69.90
2190;DHT22;1101;51.056;7.262;2022-07-23T14:35:40;27.40;69.90
2190;DHT22;1101;51.056;7.262;2022-07-23T14:40:45;27.60;70.40
2190;DHT22;1101;51.056;7.262;2022-07-23T14:43:14;27.70;69.70
2190;DHT22;1101;51.056;7.262;2022-07-23T14:45:42;27.70;69.10
2190;DHT22;1101;51.056;7.262;2022-07-23T14:48:14;27.70;68.00
2190;DHT22;1101;51.056;7.262;2022-07-23T14:50:45;27.80;69.00
2190;DHT22;1101;51.056;7.262;2022-07-23T14:53:12;27.80;69.00
2190;DHT22;1101;51.056;7.262;2022-07-23T14:55:48;27.90;69.00
2190;DHT22;1101;51.056;7.262;2022-07-23T14:58:16;27.90;68.60
2190;DHT22;1101;51.056;7.262;2022-07-23T15:00:44;27.90;68.90
2190;DHT22;1101;51.056;7.262;2022-07-23T15:03:12;28.00;68.90
2190;DHT22;1101;51.056;7.262;2022-07-23T15:05:41;28.00;68.70
2190;DHT22;1101;51.056;7.262;2022-07-23T15:08:11;28.00;68.00
2190;DHT22;1101;51.056;7.262;2022-07-23T15:10:45;27.90;67.80
2190;DHT22;1101;51.056;7.262;2022-07-23T15:13:13;27.80;68.60
2190;DHT22;1101;51.056;7.262;2022-07-23T15:15:41;27.90;68.50
2190;DHT22;1101;51.056;7.262;2022-07-23T15:18:12;27.90;68.20
2190;DHT22;1101;51.056;7.262;2022-07-23T15:20:43;27.90;68.30
2190;DHT22;1101;51.056;7.262;2022-07-23T15:23:15;28.00;68.50
2190;DHT22;1101;51.056;7.262;2022-07-23T15:25:43;28.10;68.40
2190;DHT22;1101;51.056;7.262;2022-07-23T15:28:16;28.10;68.30
2190;DHT22;1101;51.056;7.262;2022-07-23T15:31:04;28.20;68.30
2190;DHT22;1101;51.056;7.262;2022-07-23T15:33:34;28.20;67.80
2190;DHT22;1101;51.056;7.262;2022-07-23T15:36:04;28.20;67.60
2190;DHT22;1101;51.056;7.262;2022-07-23T15:38:34;28.20;67.40
2190;DHT22;1101;51.056;7.262;2022-07-23T15:41:06;28.10;67.40
2190;DHT22;1101;51.056;7.262;2022-07-23T15:43:34;28.10;66.90
2190;DHT22;1101;51.056;7.262;2022-07-23T15:46:04;28.10;67.40
2190;DHT22;1101;51.056;7.262;2022-07-23T15:48:35;28.10;66.90
2190;DHT22;1101;51.056;7.262;2022-07-23T15:51:03;28.10;67.00
2190;DHT22;1101;51.056;7.262;2022-07-23T15:53:34;28.00;66.70
2190;DHT22;1101;51.056;7.262;2022-07-23T15:56:05;28.00;67.00
2190;DHT22;1101;51.056;7.262;2022-07-23T15:58:40;28.00;67.00
2190;DHT22;1101;51.056;7.262;2022-07-23T16:01:09;28.10;66.60
2190;DHT22;1101;51.056;7.262;2022-07-23T16:03:39;28.10;66.10
2190;DHT22;1101;51.056;7.262;2022-07-23T16:06:07;28.00;66.30
2190;DHT22;1101;51.056;7.262;2022-07-23T16:08:44;27.90;66.30
2190;DHT22;1101;51.056;7.262;2022-07-23T16:11:13;27.90;66.10
2190;DHT22;1101;51.056;7.262;2022-07-23T16:13:41;27.90;66.50
2190;DHT22;1101;51.056;7.262;2022-07-23T16:16:09;28.00;66.50
2190;DHT22;1101;51.056;7.262;2022-07-23T16:18:37;28.00;66.70
2190;DHT22;1101;51.056;7.262;2022-07-23T16:21:05;28.10;66.50
2190;DHT22;1101;51.056;7.262;2022-07-23T16:23:41;28.10;65.60
2190;DHT22;1101;51.056;7.262;2022-07-23T16:26:11;28.10;66.00
2190;DHT22;1101;51.056;7.262;2022-07-23T16:28:40;28.10;66.10
2190;DHT22;1101;51.056;7.262;2022-07-23T16:31:08;28.20;66.10
2190;DHT22;1101;51.056;7.262;2022-07-23T16:33:37;28.20;65.50